Time;durP1;ratioP1;P1;durP2;ratioP2;P2;SDS_P1;SDS_P2;PMS_P1;PMS_P2;Temp;Humidity;BMP_temperature;BMP_pressure;BME280_temperature;BME280_humidity;BME280_pressure;Samples;Min_cycle;Max_cycle;Signal;HPM_P1;HPM_P2
2021/12/21 00:00:12;;;;;;;;;;;20.30;38.70;;;;;;686276;28;487;-82
2021/12/21 00:00:33;;;;;;;;;;;20.40;38.60;;;;;;686177;28;882;-81
2021/12/21 00:00:53;;;;;;;;;;;20.30;38.60;;;;;;686160;28;886;-80
2021/12/21 00:01:14;;;;;;;;;;;20.30;38.60;;;;;;686243;28;787;-81
2021/12/21 00:01:34;;;;;;;;;;;20.40;38.70;;;;;;686141;28;772;-81
2021/12/21 00:01:55;;;;;;;;;;;20.30;38.60;;;;;;686150;28;981;-82
2021/12/21 00:02:15;;;;;;;;;;;20.30;38.60;;;;;;686312;28;941;-82
2021/12/21 00:02:36;;;;;;;;;;;20.30;38.60;;;;;;686122;28;849;-82
2021/12/21 00:02:57;;;;;;;;;;;20.30;38.60;;;;;;686062;28;938;-82
2021/12/21 00:03:17;;;;;;;;;;;20.30;38.70;;;;;;691024;28;1247;-81
2021/12/21 00:03:38;;;;;;;;;;;20.30;38.60;;;;;;690991;28;897;-82
2021/12/21 00:03:59;;;;;;;;;;;20.30;38.70;;;;;;690838;28;878;-81
2021/12/21 00:04:19;;;;;;;;;;;20.30;38.80;;;;;;691163;28;1338;-83
2021/12/21 00:04:40;;;;;;;;;;;20.30;38.70;;;;;;691476;28;854;-83
2021/12/21 00:05:00;;;;;;;;;;;20.30;38.70;;;;;;690980;28;799;-82
2021/12/21 00:05:25;;;;;;;;;;;20.30;38.70;;;;;;688672;28;862;-81
2021/12/21 00:05:45;;;;;;;;;;;20.30;38.80;;;;;;688752;28;802;-82
2021/12/21 00:06:06;;;;;;;;;;;20.30;38.80;;;;;;687899;28;830;-82
2021/12/21 00:06:27;;;;;;;;;;;20.30;38.70;;;;;;686210;28;827;-82
2021/12/21 00:06:47;;;;;;;;;;;20.30;38.80;;;;;;686150;28;846;-81
2021/12/21 00:07:08;;;;;;;;;;;20.30;38.70;;;;;;686179;28;898;-82
2021/12/21 00:07:28;;;;;;;;;;;20.30;38.70;;;;;;686215;28;874;-81
2021/12/21 00:07:50;;;;;;;;;;;20.30;38.80;;;;;;686103;28;883;-81
2021/12/21 00:08:12;;;;;;;;;;;20.30;38.70;;;;;;686157;28;882;-82
2021/12/21 00:08:33;;;;;;;;;;;20.30;38.80;;;;;;686124;28;834;-82
2021/12/21 00:08:53;;;;;;;;;;;20.30;38.80;;;;;;686204;28;827;-81
2021/12/21 00:09:14;;;;;;;;;;;20.30;38.80;;;;;;686235;28;839;-80
2021/12/21 00:09:35;;;;;;;;;;;20.30;38.80;;;;;;686097;28;823;-82
2021/12/21 00:09:58;;;;;;;;;;;20.30;40.00;;;;;;686101;28;965;-81
2021/12/21 00:10:20;;;;;;;;;;;20.30;38.80;;;;;;685920;28;1088;-81
2021/12/21 00:10:45;;;;;;;;;;;20.30;39.00;;;;;;686043;28;1321;-83
2021/12/21 00:11:06;;;;;;;;;;;20.10;38.80;;;;;;685748;28;1232;-82
2021/12/21 00:11:26;;;;;;;;;;;20.30;38.90;;;;;;685896;28;1961;-82
2021/12/21 00:11:48;;;;;;;;;;;20.30;39.00;;;;;;685896;28;895;-82
2021/12/21 00:12:12;;;;;;;;;;;20.30;38.90;;;;;;686009;28;887;-82
2021/12/21 00:12:35;;;;;;;;;;;20.30;39.10;;;;;;685875;28;784;-81
2021/12/21 00:14:00;;;;;;;;;;;20.30;38.90;;;;;;686215;28;953;-81
2021/12/21 00:14:40;;;;;;;;;;;20.30;39.10;;;;;;686052;28;815;-81
2021/12/21 00:15:08;;;;;;;;;;;20.30;39.10;;;;;;686085;28;918;-80
2021/12/21 00:16:59;;;;;;;;;;;20.30;39.10;;;;;;686222;28;691;-82
2021/12/21 00:17:45;;;;;;;;;;;20.30;39.10;;;;;;683482;28;819;-82
2021/12/21 00:18:16;;;;;;;;;;;20.30;39.10;;;;;;683482;28;1124;-81
2021/12/21 00:19:05;;;;;;;;;;;20.30;39.20;;;;;;683569;28;827;-81
2021/12/21 00:19:43;;;;;;;;;;;20.30;39.30;;;;;;683409;28;1224;-82
2021/12/21 00:20:23;;;;;;;;;;;20.20;39.10;;;;;;683411;28;842;-81
2021/12/21 00:21:12;;;;;;;;;;;20.30;39.30;;;;;;683952;28;1130;-82
2021/12/21 00:22:02;;;;;;;;;;;20.30;39.30;;;;;;686203;28;885;-79
2021/12/21 00:23:29;;;;;;;;;;;20.30;39.40;;;;;;685926;28;1214;-81
2021/12/21 00:23:30;;;;;;;;;;;20.20;39.30;;;;;;685788;28;1379;-81
2021/12/21 00:23:54;;;;;;;;;;;20.20;39.30;;;;;;685870;28;1829;-83
2021/12/21 00:24:20;;;;;;;;;;;20.20;39.40;;;;;;686101;28;847;-82
2021/12/21 00:24:47;;;;;;;;;;;20.20;39.40;;;;;;686026;28;886;-81
2021/12/21 00:25:07;;;;;;;;;;;20.20;39.30;;;;;;685944;28;949;-80
2021/12/21 00:25:28;;;;;;;;;;;20.20;39.30;;;;;;685735;28;812;-81
2021/12/21 00:25:50;;;;;;;;;;;20.20;39.40;;;;;;685720;28;1382;-81
2021/12/21 00:26:12;;;;;;;;;;;20.20;39.40;;;;;;686170;28;847;-81
2021/12/21 00:26:32;;;;;;;;;;;20.20;39.40;;;;;;686018;28;1200;-82
2021/12/21 00:26:53;;;;;;;;;;;20.20;39.40;;;;;;686005;28;874;-82
2021/12/21 00:27:15;;;;;;;;;;;20.20;39.40;;;;;;686242;28;796;-81
2021/12/21 00:27:35;;;;;;;;;;;20.20;39.40;;;;;;686060;28;795;-82
2021/12/21 00:27:56;;;;;;;;;;;20.20;39.30;;;;;;686065;28;1441;-82
2021/12/21 00:28:17;;;;;;;;;;;20.20;39.40;;;;;;685964;28;1001;-82
2021/12/21 00:28:55;;;;;;;;;;;20.20;39.40;;;;;;686226;28;878;-82
2021/12/21 00:29:16;;;;;;;;;;;20.20;39.30;;;;;;686153;28;859;-81
2021/12/21 00:29:36;;;;;;;;;;;20.20;39.40;;;;;;686090;28;855;-82
2021/12/21 00:29:57;;;;;;;;;;;20.20;39.50;;;;;;686155;28;822;-81
2021/12/21 00:30:18;;;;;;;;;;;20.20;39.40;;;;;;691097;28;1180;-82
2021/12/21 00:30:38;;;;;;;;;;;20.20;39.40;;;;;;691321;28;838;-81
2021/12/21 00:30:59;;;;;;;;;;;20.20;39.60;;;;;;691268;28;779;-82
2021/12/21 00:31:19;;;;;;;;;;;20.20;39.50;;;;;;691079;28;1969;-82
2021/12/21 00:31:40;;;;;;;;;;;20.20;39.60;;;;;;691282;28;1341;-82
2021/12/21 00:32:00;;;;;;;;;;;20.20;39.60;;;;;;690640;28;823;-80
2021/12/21 00:32:21;;;;;;;;;;;20.20;39.60;;;;;;686049;28;870;-82
2021/12/21 00:32:42;;;;;;;;;;;20.20;39.60;;;;;;686203;28;969;-82
2021/12/21 00:33:02;;;;;;;;;;;20.20;39.70;;;;;;686051;28;819;-82
2021/12/21 00:33:23;;;;;;;;;;;20.20;39.70;;;;;;686053;28;830;-80
2021/12/21 00:33:46;;;;;;;;;;;20.20;39.70;;;;;;686115;28;804;-79
2021/12/21 00:34:07;;;;;;;;;;;20.20;39.80;;;;;;686268;28;846;-83
2021/12/21 00:34:28;;;;;;;;;;;19.80;39.50;;;;;;686037;28;831;-83
2021/12/21 00:34:49;;;;;;;;;;;20.20;39.80;;;;;;686157;28;823;-81
2021/12/21 00:35:10;;;;;;;;;;;20.20;39.80;;;;;;686226;28;929;-81
2021/12/21 00:35:30;;;;;;;;;;;20.20;39.90;;;;;;686071;28;894;-81
2021/12/21 00:35:51;;;;;;;;;;;20.20;39.90;;;;;;686103;28;870;-82
2021/12/21 00:36:11;;;;;;;;;;;20.20;39.80;;;;;;691442;28;1298;-82
2021/12/21 00:36:33;;;;;;;;;;;20.20;39.90;;;;;;691243;28;555;-83
2021/12/21 00:36:53;;;;;;;;;;;20.20;39.90;;;;;;691464;28;1199;-82
2021/12/21 00:37:14;;;;;;;;;;;20.20;39.90;;;;;;691419;28;799;-83
2021/12/21 00:37:36;;;;;;;;;;;20.20;39.90;;;;;;691197;28;815;-82
2021/12/21 00:37:57;;;;;;;;;;;20.20;39.80;;;;;;690732;28;815;-82
2021/12/21 00:38:17;;;;;;;;;;;20.20;39.80;;;;;;688375;28;921;-83
2021/12/21 00:38:38;;;;;;;;;;;20.20;39.90;;;;;;688622;28;814;-81
2021/12/21 00:39:01;;;;;;;;;;;20.20;40.00;;;;;;688556;28;783;-83
2021/12/21 00:39:21;;;;;;;;;;;20.20;40.00;;;;;;688603;28;934;-82
2021/12/21 00:39:42;;;;;;;;;;;20.20;40.00;;;;;;688586;28;795;-83
2021/12/21 00:40:03;;;;;;;;;;;20.20;39.90;;;;;;687996;28;906;-83
2021/12/21 00:40:24;;;;;;;;;;;20.20;40.00;;;;;;685931;28;1184;-82
2021/12/21 00:40:44;;;;;;;;;;;20.10;40.00;;;;;;686106;28;783;-82
2021/12/21 00:41:05;;;;;;;;;;;20.20;39.90;;;;;;685986;28;961;-82
2021/12/21 00:41:26;;;;;;;;;;;20.20;40.00;;;;;;686039;28;990;-85
2021/12/21 00:41:47;;;;;;;;;;;20.20;40.00;;;;;;686015;28;874;-86
2021/12/21 00:42:07;;;;;;;;;;;20.20;40.20;;;;;;686290;28;886;-82
2021/12/21 00:42:28;;;;;;;;;;;20.20;40.10;;;;;;686090;28;799;-81
2021/12/21 00:42:48;;;;;;;;;;;20.20;40.10;;;;;;685473;28;934;-82
2021/12/21 00:43:09;;;;;;;;;;;20.20;40.00;;;;;;686146;28;851;-83
2021/12/21 00:43:30;;;;;;;;;;;20.20;40.10;;;;;;685946;28;1204;-83
2021/12/21 00:43:51;;;;;;;;;;;20.20;40.10;;;;;;685854;28;847;-82
2021/12/21 00:44:11;;;;;;;;;;;20.20;40.10;;;;;;685937;28;851;-82
2021/12/21 00:44:32;;;;;;;;;;;20.20;40.20;;;;;;685966;28;832;-82
2021/12/21 00:44:53;;;;;;;;;;;20.20;40.10;;;;;;685895;28;839;-84
2021/12/21 00:45:13;;;;;;;;;;;20.20;40.10;;;;;;685912;28;918;-82
2021/12/21 00:45:34;;;;;;;;;;;20.20;40.10;;;;;;686190;28;787;-83
2021/12/21 00:45:54;;;;;;;;;;;20.20;40.10;;;;;;686095;28;1064;-82
2021/12/21 00:46:15;;;;;;;;;;;20.20;40.10;;;;;;686222;28;886;-83
2021/12/21 00:46:38;;;;;;;;;;;20.20;40.00;;;;;;688495;28;1110;-82
2021/12/21 00:46:58;;;;;;;;;;;20.20;40.10;;;;;;688616;28;906;-85
2021/12/21 00:47:19;;;;;;;;;;;20.20;40.10;;;;;;688546;28;917;-84
2021/12/21 00:47:46;;;;;;;;;;;20.20;40.20;;;;;;688629;28;815;-86
2021/12/21 00:48:07;;;;;;;;;;;20.20;40.30;;;;;;688570;28;865;-85
2021/12/21 00:48:29;;;;;;;;;;;20.20;40.30;;;;;;687256;28;1005;-84
2021/12/21 00:48:53;;;;;;;;;;;20.20;40.30;;;;;;686004;28;816;-83
2021/12/21 00:49:15;;;;;;;;;;;20.20;40.10;;;;;;686126;28;917;-84
2021/12/21 00:49:37;;;;;;;;;;;20.10;40.20;;;;;;686004;28;866;-83
2021/12/21 00:50:00;;;;;;;;;;;20.20;40.30;;;;;;685793;28;1214;-82
2021/12/21 00:50:21;;;;;;;;;;;20.20;40.20;;;;;;685768;28;902;-85
2021/12/21 00:50:42;;;;;;;;;;;20.20;40.20;;;;;;685943;28;890;-81
2021/12/21 00:51:04;;;;;;;;;;;20.20;40.20;;;;;;685758;28;926;-82
2021/12/21 00:51:25;;;;;;;;;;;20.20;40.20;;;;;;685669;28;1890;-83
2021/12/21 00:51:47;;;;;;;;;;;20.20;40.30;;;;;;686888;28;800;-82
2021/12/21 00:52:07;;;;;;;;;;;20.20;40.30;;;;;;688615;28;830;-81
2021/12/21 00:52:28;;;;;;;;;;;20.20;40.30;;;;;;688517;28;984;-83
2021/12/21 00:52:50;;;;;;;;;;;20.20;40.40;;;;;;688502;28;910;-81
2021/12/21 00:53:12;;;;;;;;;;;20.20;40.40;;;;;;687882;28;886;-82
2021/12/21 00:53:36;;;;;;;;;;;20.20;40.90;;;;;;686042;28;720;-81
2021/12/21 00:53:56;;;;;;;;;;;20.20;41.50;;;;;;686107;28;870;-81
2021/12/21 00:54:17;;;;;;;;;;;20.20;42.40;;;;;;685944;28;833;-82
2021/12/21 00:54:37;;;;;;;;;;;20.20;43.10;;;;;;686144;28;803;-83
2021/12/21 00:54:58;;;;;;;;;;;20.20;43.20;;;;;;686012;28;815;-83
2021/12/21 00:55:19;;;;;;;;;;;20.20;43.40;;;;;;683313;28;1225;-83
2021/12/21 00:55:40;;;;;;;;;;;20.20;43.40;;;;;;683120;29;957;-83
2021/12/21 00:56:00;;;;;;;;;;;20.20;43.40;;;;;;683086;29;1057;-83
2021/12/21 00:56:21;;;;;;;;;;;20.20;43.50;;;;;;683120;29;832;-84
2021/12/21 00:56:41;;;;;;;;;;;20.20;43.50;;;;;;683574;28;804;-83
2021/12/21 00:57:04;;;;;;;;;;;20.20;43.50;;;;;;686012;28;1389;-83
2021/12/21 00:57:25;;;;;;;;;;;20.20;43.40;;;;;;688448;28;803;-83
2021/12/21 00:57:45;;;;;;;;;;;20.20;43.40;;;;;;688775;28;842;-83
2021/12/21 00:58:06;;;;;;;;;;;20.20;43.30;;;;;;688362;28;964;-83
2021/12/21 00:58:26;;;;;;;;;;;20.20;43.30;;;;;;688467;28;779;-82
2021/12/21 00:58:47;;;;;;;;;;;20.20;43.30;;;;;;687926;28;870;-83
2021/12/21 00:59:08;;;;;;;;;;;20.30;43.30;;;;;;686076;28;795;-82
2021/12/21 00:59:28;;;;;;;;;;;20.30;43.10;;;;;;686113;28;989;-83
2021/12/21 00:59:49;;;;;;;;;;;20.30;43.10;;;;;;685975;28;981;-84
2021/12/21 01:00:12;;;;;;;;;;;20.30;43.00;;;;;;686028;28;867;-82
2021/12/21 01:00:32;;;;;;;;;;;20.30;43.00;;;;;;685934;28;787;-83
2021/12/21 01:00:53;;;;;;;;;;;20.30;43.00;;;;;;686066;28;791;-82
2021/12/21 01:01:13;;;;;;;;;;;20.30;42.90;;;;;;686068;28;943;-82
2021/12/21 01:01:35;;;;;;;;;;;20.30;42.80;;;;;;686001;28;871;-83
2021/12/21 01:01:56;;;;;;;;;;;20.30;42.80;;;;;;685976;28;1028;-81
2021/12/21 01:02:17;;;;;;;;;;;20.30;42.80;;;;;;686030;28;851;-81
2021/12/21 01:02:38;;;;;;;;;;;20.30;42.80;;;;;;686058;28;875;-82
2021/12/21 01:03:05;;;;;;;;;;;20.30;42.70;;;;;;685929;28;897;-83
2021/12/21 01:03:26;;;;;;;;;;;20.30;42.60;;;;;;688402;28;1509;-84
2021/12/21 01:03:51;;;;;;;;;;;20.30;42.60;;;;;;688455;28;814;-83
2021/12/21 01:04:21;;;;;;;;;;;20.30;42.50;;;;;;688520;28;800;-82
2021/12/21 01:04:46;;;;;;;;;;;20.30;42.50;;;;;;688597;28;902;-83
2021/12/21 01:05:16;;;;;;;;;;;20.30;42.50;;;;;;688448;28;870;-82
2021/12/21 01:05:54;;;;;;;;;;;20.30;42.40;;;;;;686113;28;847;-82
2021/12/21 01:07:03;;;;;;;;;;;20.40;42.30;;;;;;682848;29;1047;-83
2021/12/21 01:07:34;;;;;;;;;;;20.40;42.30;;;;;;682991;29;819;-82
2021/12/21 01:07:58;;;;;;;;;;;20.40;42.30;;;;;;682975;29;1084;-82
2021/12/21 01:08:23;;;;;;;;;;;20.00;42.00;;;;;;682953;29;811;-82
2021/12/21 01:09:10;;;;;;;;;;;20.40;42.20;;;;;;683207;29;819;-81
2021/12/21 01:10:13;;;;;;;;;;;20.40;42.20;;;;;;679866;29;1539;-81
2021/12/21 01:11:22;;;;;;;;;;;20.40;42.30;;;;;;680899;29;1906;-82
2021/12/21 01:11:52;;;;;;;;;;;20.40;42.20;;;;;;683062;29;811;-82
2021/12/21 01:12:13;;;;;;;;;;;20.40;42.20;;;;;;683081;29;815;-82
2021/12/21 01:13:10;;;;;;;;;;;20.40;42.10;;;;;;683011;29;1029;-83
2021/12/21 01:14:59;;;;;;;;;;;20.40;42.10;;;;;;683028;29;676;-83
2021/12/21 01:15:21;;;;;;;;;;;20.40;42.10;;;;;;682813;29;1678;-82
2021/12/21 01:16:42;;;;;;;;;;;20.40;42.00;;;;;;680335;29;887;-82
2021/12/21 01:17:11;;;;;;;;;;;20.40;42.00;;;;;;680289;29;1496;-82
2021/12/21 01:18:26;;;;;;;;;;;20.40;42.00;;;;;;675335;29;1001;-83
2021/12/21 01:19:04;;;;;;;;;;;20.50;42.00;;;;;;675094;29;832;-84
2021/12/21 01:19:34;;;;;;;;;;;20.50;42.00;;;;;;675107;29;1034;-82
2021/12/21 01:20:08;;;;;;;;;;;20.50;42.00;;;;;;675189;29;847;-83
2021/12/21 01:20:35;;;;;;;;;;;20.50;42.00;;;;;;675137;29;954;-82
2021/12/21 01:21:07;;;;;;;;;;;20.50;42.00;;;;;;675121;29;970;-82
2021/12/21 01:21:32;;;;;;;;;;;20.50;42.00;;;;;;675081;29;855;-82
2021/12/21 01:22:21;;;;;;;;;;;20.50;41.80;;;;;;675281;29;662;-83
2021/12/21 01:24:14;;;;;;;;;;;20.50;42.00;;;;;;675172;29;1046;-85
2021/12/21 01:26:10;;;;;;;;;;;20.50;41.80;;;;;;672472;29;721;-84
2021/12/21 01:26:41;;;;;;;;;;;20.50;41.70;;;;;;674395;29;848;-81
2021/12/21 01:27:19;;;;;;;;;;;20.50;41.80;;;;;;675082;29;906;-82
2021/12/21 01:29:17;;;;;;;;;;;20.50;41.70;;;;;;672531;29;804;-83
2021/12/21 01:30:31;;;;;;;;;;;20.50;41.70;;;;;;672717;29;774;-83
2021/12/21 01:32:08;;;;;;;;;;;20.50;41.70;;;;;;669948;29;1303;-83
2021/12/21 01:32:58;;;;;;;;;;;20.50;41.70;;;;;;669988;29;919;-82
2021/12/21 01:35:20;;;;;;;;;;;20.50;41.70;;;;;;669980;29;855;-83
2021/12/21 01:35:44;;;;;;;;;;;20.50;41.60;;;;;;670043;29;817;-85
2021/12/21 01:36:14;;;;;;;;;;;20.50;41.60;;;;;;669957;29;863;-82
2021/12/21 01:36:51;;;;;;;;;;;20.50;41.60;;;;;;669924;29;1007;-82
2021/12/21 01:37:23;;;;;;;;;;;20.50;41.60;;;;;;670108;29;836;-84
2021/12/21 01:38:44;;;;;;;;;;;20.50;41.60;;;;;;669975;29;649;-84
2021/12/21 01:40:21;;;;;;;;;;;20.50;42.00;;;;;;670052;29;646;-84
2021/12/21 01:40:54;;;;;;;;;;;20.40;41.70;;;;;;670033;29;899;-85
2021/12/21 01:41:32;;;;;;;;;;;20.40;41.70;;;;;;670004;29;895;-83
2021/12/21 01:43:09;;;;;;;;;;;20.40;41.80;;;;;;669907;29;708;-83
2021/12/21 01:43:39;;;;;;;;;;;20.40;41.80;;;;;;669930;29;1048;-84
2021/12/21 01:49:53;;;;;;;;;;;20.30;42.00;;;;;;680231;29;1132;-83
2021/12/21 01:50:14;;;;;;;;;;;20.30;42.20;;;;;;680457;29;831;-84
2021/12/21 01:50:34;;;;;;;;;;;20.30;42.20;;;;;;680289;29;1122;-83
2021/12/21 01:50:56;;;;;;;;;;;20.30;42.20;;;;;;680226;29;1379;-83
2021/12/21 01:51:17;;;;;;;;;;;20.30;42.20;;;;;;680299;29;1969;-87
2021/12/21 01:51:37;;;;;;;;;;;20.30;42.30;;;;;;680417;29;811;-83
2021/12/21 01:51:58;;;;;;;;;;;20.30;42.20;;;;;;680174;29;1035;-81
2021/12/21 01:52:20;;;;;;;;;;;20.30;42.30;;;;;;680283;29;907;-84
2021/12/21 01:52:41;;;;;;;;;;;20.30;42.30;;;;;;680387;29;1382;-83
2021/12/21 01:53:01;;;;;;;;;;;20.30;42.40;;;;;;680130;29;1484;-84
2021/12/21 01:53:22;;;;;;;;;;;20.30;42.30;;;;;;680291;29;962;-81
2021/12/21 01:53:42;;;;;;;;;;;20.30;42.30;;;;;;680365;29;863;-83
2021/12/21 01:54:03;;;;;;;;;;;20.30;42.40;;;;;;677216;29;1457;-82
2021/12/21 01:54:24;;;;;;;;;;;20.30;42.40;;;;;;677612;29;1373;-82
2021/12/21 01:54:44;;;;;;;;;;;20.30;42.40;;;;;;677804;29;769;-83
2021/12/21 01:55:06;;;;;;;;;;;20.30;42.40;;;;;;677568;29;1390;-83
2021/12/21 01:55:26;;;;;;;;;;;20.30;42.40;;;;;;677712;29;887;-83
2021/12/21 01:55:47;;;;;;;;;;;20.30;42.30;;;;;;678021;29;895;-81
2021/12/21 01:56:08;;;;;;;;;;;20.30;42.30;;;;;;680268;29;803;-83
2021/12/21 01:56:28;;;;;;;;;;;20.30;42.40;;;;;;676115;29;983;-84
2021/12/21 01:56:49;;;;;;;;;;;20.30;42.30;;;;;;675086;29;781;-83
2021/12/21 01:57:10;;;;;;;;;;;20.30;42.30;;;;;;675144;29;1195;-82
2021/12/21 01:57:30;;;;;;;;;;;20.30;42.30;;;;;;675050;29;891;-83
2021/12/21 01:57:51;;;;;;;;;;;20.30;42.40;;;;;;675061;29;1120;-83
2021/12/21 01:58:11;;;;;;;;;;;20.30;42.40;;;;;;675023;29;1327;-83
2021/12/21 01:58:33;;;;;;;;;;;20.30;42.40;;;;;;674986;29;1027;-83
2021/12/21 01:58:54;;;;;;;;;;;20.30;42.40;;;;;;675093;29;586;-82
2021/12/21 01:59:14;;;;;;;;;;;20.30;42.30;;;;;;675205;29;796;-84
2021/12/21 01:59:36;;;;;;;;;;;20.30;42.30;;;;;;675073;29;939;-84
2021/12/21 01:59:57;;;;;;;;;;;20.30;42.30;;;;;;675011;29;887;-85
2021/12/21 02:00:18;;;;;;;;;;;20.30;42.30;;;;;;675073;29;902;-86
2021/12/21 02:00:39;;;;;;;;;;;20.30;42.40;;;;;;675272;29;784;-84
2021/12/21 02:01:01;;;;;;;;;;;20.30;42.30;;;;;;675083;29;757;-84
2021/12/21 02:01:22;;;;;;;;;;;20.20;42.30;;;;;;675078;29;757;-82
2021/12/21 02:01:43;;;;;;;;;;;20.30;42.30;;;;;;676539;29;1410;-81
2021/12/21 02:02:05;;;;;;;;;;;20.30;42.40;;;;;;675088;29;1002;-84
2021/12/21 02:02:26;;;;;;;;;;;20.30;42.30;;;;;;675150;29;867;-82
2021/12/21 02:02:46;;;;;;;;;;;20.30;42.30;;;;;;674974;29;1210;-82
2021/12/21 02:03:07;;;;;;;;;;;20.30;42.30;;;;;;675180;29;800;-85
2021/12/21 02:03:28;;;;;;;;;;;20.30;42.30;;;;;;674981;29;1343;-85
2021/12/21 02:03:48;;;;;;;;;;;20.20;42.10;;;;;;677484;29;1547;-84
2021/12/21 02:04:11;;;;;;;;;;;20.20;41.80;;;;;;677811;29;860;-83
2021/12/21 02:04:32;;;;;;;;;;;20.20;41.70;;;;;;677676;29;863;-84
2021/12/21 02:04:52;;;;;;;;;;;20.20;41.60;;;;;;677679;29;1428;-83
2021/12/21 02:05:13;;;;;;;;;;;20.20;41.50;;;;;;677826;29;819;-82
2021/12/21 02:05:34;;;;;;;;;;;20.20;41.60;;;;;;677590;29;939;-82
2021/12/21 02:05:54;;;;;;;;;;;20.20;41.60;;;;;;677593;29;967;-83
2021/12/21 02:06:16;;;;;;;;;;;20.20;41.60;;;;;;675116;29;895;-84
2021/12/21 02:06:36;;;;;;;;;;;20.20;41.60;;;;;;675032;29;792;-80
2021/12/21 02:06:57;;;;;;;;;;;20.20;41.70;;;;;;675051;29;891;-80
2021/12/21 02:07:17;;;;;;;;;;;20.20;41.80;;;;;;675022;29;884;-82
2021/12/21 02:07:39;;;;;;;;;;;20.20;41.80;;;;;;675120;29;1424;-79
2021/12/21 02:08:00;;;;;;;;;;;20.20;41.70;;;;;;675543;29;914;-81
2021/12/21 02:08:20;;;;;;;;;;;20.20;41.70;;;;;;677612;29;808;-82
2021/12/21 02:08:41;;;;;;;;;;;20.20;41.70;;;;;;677833;29;839;-82
2021/12/21 02:09:02;;;;;;;;;;;20.20;41.70;;;;;;677590;29;839;-82
2021/12/21 02:09:28;;;;;;;;;;;20.20;41.80;;;;;;677631;29;942;-83
2021/12/21 02:09:49;;;;;;;;;;;20.20;41.80;;;;;;677612;29;808;-81
2021/12/21 02:10:10;;;;;;;;;;;20.20;41.90;;;;;;679675;29;1075;-81
2021/12/21 02:10:31;;;;;;;;;;;20.20;41.80;;;;;;680286;29;831;-81
2021/12/21 02:10:51;;;;;;;;;;;20.20;41.80;;;;;;680306;29;903;-82
2021/12/21 02:11:13;;;;;;;;;;;20.20;42.00;;;;;;680199;29;1071;-82
2021/12/21 02:11:33;;;;;;;;;;;20.20;41.80;;;;;;680214;29;1979;-83
2021/12/21 02:11:54;;;;;;;;;;;20.20;41.80;;;;;;680276;29;939;-83
2021/12/21 02:12:16;;;;;;;;;;;20.10;41.90;;;;;;680329;29;930;-82
2021/12/21 02:12:36;;;;;;;;;;;20.10;41.90;;;;;;681770;28;1446;-81
2021/12/21 02:12:57;;;;;;;;;;;20.10;42.00;;;;;;682912;29;851;-84
2021/12/21 02:13:18;;;;;;;;;;;20.10;41.90;;;;;;682881;29;824;-83
2021/12/21 02:13:44;;;;;;;;;;;20.10;42.00;;;;;;683035;29;823;-81
2021/12/21 02:14:08;;;;;;;;;;;20.10;42.00;;;;;;682495;29;950;-81
2021/12/21 02:14:29;;;;;;;;;;;20.10;42.00;;;;;;682848;29;898;-80
2021/12/21 02:14:57;;;;;;;;;;;20.20;42.10;;;;;;682676;29;1474;-81
2021/12/21 02:15:18;;;;;;;;;;;20.10;42.10;;;;;;682865;29;1291;-83
2021/12/21 02:15:39;;;;;;;;;;;20.10;42.10;;;;;;682859;29;1375;-81
2021/12/21 02:15:59;;;;;;;;;;;20.10;42.00;;;;;;682923;29;1447;-82
2021/12/21 02:16:28;;;;;;;;;;;20.10;42.10;;;;;;682821;29;854;-82
2021/12/21 02:17:05;;;;;;;;;;;20.10;42.10;;;;;;682902;29;1379;-81
2021/12/21 02:19:04;;;;;;;;;;;20.10;42.10;;;;;;688249;28;798;-81
2021/12/21 02:19:31;;;;;;;;;;;20.10;42.10;;;;;;686008;28;819;-83
2021/12/21 02:19:56;;;;;;;;;;;20.10;42.10;;;;;;685590;28;847;-83
2021/12/21 02:20:26;;;;;;;;;;;20.10;42.10;;;;;;682738;29;1215;-82
2021/12/21 02:20:54;;;;;;;;;;;20.10;42.20;;;;;;682973;29;913;-82
2021/12/21 02:21:50;;;;;;;;;;;20.10;42.10;;;;;;683006;29;727;-83
2021/12/21 02:22:16;;;;;;;;;;;20.10;42.10;;;;;;684803;28;883;-82
2021/12/21 02:22:42;;;;;;;;;;;19.50;41.90;;;;;;685654;28;859;-80
2021/12/21 02:23:12;;;;;;;;;;;20.10;42.20;;;;;;685566;28;835;-81
2021/12/21 02:23:36;;;;;;;;;;;20.10;42.20;;;;;;682473;29;879;-82
2021/12/21 02:24:03;;;;;;;;;;;20.10;42.20;;;;;;682959;29;838;-82
2021/12/21 02:24:36;;;;;;;;;;;20.00;42.20;;;;;;682740;29;1166;-81
2021/12/21 02:25:31;;;;;;;;;;;20.10;42.30;;;;;;682927;29;878;-84
2021/12/21 02:26:35;;;;;;;;;;;20.10;42.30;;;;;;685554;28;1000;-82
2021/12/21 02:27:17;;;;;;;;;;;20.10;42.30;;;;;;688138;28;1133;-79
2021/12/21 02:27:18;;;;;;;;;;;20.10;42.30;;;;;;675237;28;1283;-81
2021/12/21 02:27:43;;;;;;;;;;;20.00;42.20;;;;;;686077;28;1187;-81
2021/12/21 02:29:15;;;;;;;;;;;20.10;42.20;;;;;;686079;28;684;-81
2021/12/21 02:29:37;;;;;;;;;;;20.00;42.20;;;;;;683279;29;832;-82
2021/12/21 02:29:57;;;;;;;;;;;20.00;42.20;;;;;;683429;28;890;-82
2021/12/21 02:30:19;;;;;;;;;;;20.00;42.30;;;;;;685950;28;889;-82
2021/12/21 02:30:43;;;;;;;;;;;20.00;42.20;;;;;;686126;28;827;-79
2021/12/21 02:31:03;;;;;;;;;;;20.00;42.20;;;;;;686018;28;1140;-81
2021/12/21 02:31:27;;;;;;;;;;;20.00;42.20;;;;;;687005;28;1969;-81
2021/12/21 02:31:50;;;;;;;;;;;20.00;42.20;;;;;;685342;28;1095;-82
2021/12/21 02:32:12;;;;;;;;;;;20.00;42.20;;;;;;685573;28;1304;-82
2021/12/21 02:32:32;;;;;;;;;;;20.00;42.20;;;;;;686072;28;854;-82
2021/12/21 02:32:53;;;;;;;;;;;20.00;42.30;;;;;;685988;28;1335;-82
2021/12/21 02:33:14;;;;;;;;;;;20.00;42.20;;;;;;686158;28;858;-82
2021/12/21 02:33:35;;;;;;;;;;;20.00;42.20;;;;;;686887;28;897;-82
2021/12/21 02:33:56;;;;;;;;;;;20.00;42.30;;;;;;688891;28;858;-84
2021/12/21 02:34:17;;;;;;;;;;;20.00;42.30;;;;;;688791;28;846;-82
2021/12/21 02:34:38;;;;;;;;;;;20.00;42.30;;;;;;688847;28;787;-84
2021/12/21 02:34:59;;;;;;;;;;;20.00;42.30;;;;;;688694;28;914;-84
2021/12/21 02:35:19;;;;;;;;;;;20.00;42.30;;;;;;688830;28;1030;-83
2021/12/21 02:35:41;;;;;;;;;;;20.00;42.20;;;;;;688823;28;933;-82
2021/12/21 02:36:02;;;;;;;;;;;20.00;42.20;;;;;;688692;28;1228;-83
2021/12/21 02:36:22;;;;;;;;;;;20.00;42.20;;;;;;688731;28;942;-83
2021/12/21 02:36:44;;;;;;;;;;;20.00;42.30;;;;;;688861;28;874;-83
2021/12/21 02:37:05;;;;;;;;;;;20.00;42.30;;;;;;688670;28;946;-83
2021/12/21 02:37:25;;;;;;;;;;;20.00;42.20;;;;;;688917;28;936;-84
2021/12/21 02:37:46;;;;;;;;;;;20.00;42.30;;;;;;688894;28;768;-82
2021/12/21 02:38:06;;;;;;;;;;;20.00;42.30;;;;;;688852;28;937;-83
2021/12/21 02:38:27;;;;;;;;;;;20.00;42.10;;;;;;688652;28;1210;-84
2021/12/21 02:38:48;;;;;;;;;;;20.00;42.30;;;;;;688730;28;799;-83
2021/12/21 02:39:09;;;;;;;;;;;20.00;42.20;;;;;;688830;28;909;-83
2021/12/21 02:39:30;;;;;;;;;;;20.00;42.40;;;;;;688696;28;949;-83
2021/12/21 02:39:50;;;;;;;;;;;20.00;42.30;;;;;;688725;28;854;-82
2021/12/21 02:40:11;;;;;;;;;;;20.00;42.40;;;;;;688823;28;811;-83
2021/12/21 02:40:32;;;;;;;;;;;20.00;42.40;;;;;;688376;28;1293;-82
2021/12/21 02:40:53;;;;;;;;;;;20.00;42.50;;;;;;688771;28;732;-82
2021/12/21 02:41:14;;;;;;;;;;;20.00;42.40;;;;;;688748;28;822;-84
2021/12/21 02:41:36;;;;;;;;;;;20.00;42.30;;;;;;688586;28;923;-82
2021/12/21 02:41:57;;;;;;;;;;;20.00;42.40;;;;;;688730;28;814;-83
2021/12/21 02:42:17;;;;;;;;;;;20.00;42.40;;;;;;688699;28;819;-83
2021/12/21 02:42:38;;;;;;;;;;;20.00;42.40;;;;;;688856;28;826;-81
2021/12/21 02:42:58;;;;;;;;;;;20.00;42.30;;;;;;688729;28;826;-83
2021/12/21 02:43:19;;;;;;;;;;;20.00;42.30;;;;;;688700;28;962;-83
2021/12/21 02:43:40;;;;;;;;;;;19.90;42.30;;;;;;688717;28;975;-82
2021/12/21 02:44:00;;;;;;;;;;;20.00;42.50;;;;;;688712;28;881;-82
2021/12/21 02:44:21;;;;;;;;;;;20.00;42.40;;;;;;688711;28;878;-81
2021/12/21 02:44:48;;;;;;;;;;;20.00;42.50;;;;;;688856;28;791;-81
2021/12/21 02:45:09;;;;;;;;;;;20.00;42.40;;;;;;688814;28;859;-82
2021/12/21 02:45:29;;;;;;;;;;;20.00;42.40;;;;;;685913;28;1304;-82
2021/12/21 02:45:50;;;;;;;;;;;20.00;42.40;;;;;;686045;28;895;-83
2021/12/21 02:46:10;;;;;;;;;;;20.00;42.40;;;;;;686227;28;796;-82
2021/12/21 02:46:31;;;;;;;;;;;20.00;42.40;;;;;;686014;28;835;-82
2021/12/21 02:46:51;;;;;;;;;;;19.90;42.30;;;;;;685979;28;807;-82
2021/12/21 02:47:12;;;;;;;;;;;19.90;42.40;;;;;;686315;28;905;-83
2021/12/21 02:47:32;;;;;;;;;;;20.00;42.50;;;;;;688797;28;834;-82
2021/12/21 02:47:53;;;;;;;;;;;20.00;42.40;;;;;;688626;28;838;-82
2021/12/21 02:48:14;;;;;;;;;;;19.90;42.40;;;;;;688838;28;933;-82
2021/12/21 02:48:34;;;;;;;;;;;19.90;42.40;;;;;;688696;28;899;-83
2021/12/21 02:48:55;;;;;;;;;;;20.00;42.50;;;;;;688828;28;849;-83
2021/12/21 02:49:16;;;;;;;;;;;19.90;42.40;;;;;;688735;28;839;-81
2021/12/21 02:49:37;;;;;;;;;;;19.90;43.50;;;;;;688812;28;854;-83
2021/12/21 02:49:58;;;;;;;;;;;20.00;42.50;;;;;;688694;28;862;-82
2021/12/21 02:50:19;;;;;;;;;;;19.90;42.50;;;;;;686983;28;975;-83
2021/12/21 02:50:40;;;;;;;;;;;19.90;43.60;;;;;;686450;28;788;-82
2021/12/21 02:51:01;;;;;;;;;;;19.90;42.50;;;;;;686331;28;949;-82